Latest Weather Observations for Jervois

IDD60801

Issued at 11:35 am CST Thursday 2 October 2014 (issued every 30 minutes, with the page automatically refreshed every 10 minutes)

About weather observations | Map of weather stations | Latest weather observations for NT | Other Formats
Station Details ID: 015602 Name: JERVOIS Lat: -22.95 Lon: 136.14 Height: 328.0 m
Data from the previous 72 hours. | See also: Recent months at Jervois
Date/Time
CST
Temp
°C
App
Temp
°C
Dew
Point
Rel
Hum
%
Delta-T
°C
Wind Press
QNH
hPa
Press
MSL
hPa
Rain
since 9 am
mm
Dir
 
Spd
km/h
Gust
km/h
Spd
kts
Gust
kts
02/11:30am 27.7 21.5 -4.8 11 14.2 ESE 19 30 10 16 1021.0 - 0.0
02/11:00am 26.8 19.6 -5.4 11 13.8 E 24 32 13 17 1021.6 - 0.0
02/10:30am 25.7 19.5 -2.9 15 12.7 E 20 28 11 15 1021.9 - 0.0
02/10:00am 24.6 18.0 -3.3 15 12.2 ESE 22 30 12 16 1022.2 - 0.0
02/09:30am 24.0 17.8 -3.0 16 11.8 ESE 20 30 11 16 1022.3 - 0.0
02/09:00am 22.5 15.6 -3.0 18 11.0 ESE 24 33 13 18 1022.2 1020.6 0.0
02/08:30am 21.9 15.4 -2.6 19 10.6 SE 22 32 12 17 1022.2 - 0.0
02/08:00am 21.0 14.6 -2.0 21 10.0 SE 22 32 12 17 1022.0 - 0.0
02/07:30am 19.6 13.8 -1.7 23 9.2 SE 19 28 10 15 1021.8 - 0.0
02/07:00am 18.7 13.6 -1.6 25 8.7 SSE 15 24 8 13 1021.5 - 0.0
02/06:30am 17.8 13.6 -0.6 28 8.0 SSE 11 17 6 9 1021.2 - 0.0
02/06:00am 18.0 13.0 -1.0 27 8.2 SSE 15 20 8 11 1021.0 1019.4 0.0
02/05:30am 18.3 13.7 -0.8 27 8.3 SSE 13 17 7 9 1020.7 - 0.0
02/05:00am 18.7 14.1 -0.8 26 8.5 S 13 20 7 11 1020.4 - 0.0
02/04:30am 19.2 15.1 -0.5 26 8.7 S 11 15 6 8 1019.9 - 0.0
02/04:00am 19.9 15.0 -0.7 25 9.1 S 15 20 8 11 1019.7 - 0.0
02/03:30am 20.5 15.6 -0.6 24 9.4 SSE 15 22 8 12 1019.6 - 0.0
02/03:00am 21.1 16.2 -0.6 23 9.7 SSE 15 20 8 11 1019.5 1017.8 0.0
02/02:30am 21.5 16.7 -0.1 23 9.8 S 15 20 8 11 1019.5 - 0.0
02/02:00am 22.0 17.2 0.1 23 10.0 S 15 22 8 12 1019.6 - 0.0
02/01:30am 22.7 17.5 0.0 22 10.4 S 17 22 9 12 1019.7 - 0.0
02/01:00am 23.1 18.3 0.5 22 10.5 SSE 15 20 8 11 1019.9 - 0.0
02/12:30am 23.9 19.2 0.6 21 10.9 SSE 15 24 8 13 1020.0 - 0.0
02/12:00am 24.5 19.0 0.7 21 11.2 SSE 19 28 10 15 1019.9 1018.4 0.0
 
Date/Time
CST
Temp
°C
App
Temp
°C
Dew
Point
Rel
Hum
%
Delta-T
°C
Wind Press
QNH
hPa
Press
MSL
hPa
Rain
since 9 am
mm
Dir
 
Spd
km/h
Gust
km/h
Spd
kts
Gust
kts
01/11:30pm 25.1 19.4 0.5 20 11.6 SSE 20 30 11 16 1020.0 - 0.0
01/11:00pm 25.8 20.0 0.1 18 12.1 SSE 20 32 11 17 1019.9 - 0.0
01/10:30pm 26.5 20.0 0.0 17 12.5 SSE 24 37 13 20 1019.5 - 0.0
01/10:00pm 26.9 20.5 0.9 18 12.5 SSE 24 35 13 19 1019.3 - 0.0
01/09:30pm 28.1 21.1 -0.3 15 13.5 SSE 26 37 14 20 1019.0 - 0.0
01/09:00pm 28.9 22.2 -1.4 14 14.2 SSE 24 39 13 21 1018.7 1017.1 0.0
01/08:30pm 29.7 23.5 -3.0 12 15.0 SSE 20 30 11 16 1018.4 - 0.0
01/08:00pm 30.5 24.0 -2.7 11 15.4 SSE 22 30 12 16 1018.0 - 0.0
01/07:30pm 31.1 24.9 -2.9 11 15.8 SSE 20 30 11 16 1017.5 - 0.0
01/07:00pm 31.8 25.2 -3.4 10 16.3 SSE 22 32 12 17 1017.1 - 0.0
01/06:30pm 32.3 25.4 -2.9 10 16.5 SSE 24 39 13 21 1016.7 - 0.0
01/06:00pm 33.1 25.3 -3.6 9 17.1 SSE 28 41 15 22 1016.2 1014.5 0.0
01/05:30pm 33.7 26.0 -3.3 9 17.4 SSE 28 41 15 22 1015.9 - 0.0
01/05:00pm 34.5 28.0 -2.3 9 17.7 SSE 22 37 12 20 1015.8 - 0.0
01/04:30pm 34.9 28.4 -2.6 9 18.0 SSE 22 32 12 17 1015.6 - 0.0
01/04:00pm 34.9 28.9 -1.6 10 17.8 SE 20 30 11 16 1015.6 - 0.0
01/03:30pm 35.0 29.2 -1.3 10 17.8 SE 19 28 10 15 1015.7 - 0.0
01/03:00pm 35.9 30.5 -1.5 9 18.4 SE 17 28 9 15 1016.0 1014.4 0.0
01/02:30pm 35.4 30.1 -0.6 10 17.9 ESE 17 28 9 15 1016.4 - 0.0
01/02:00pm 34.5 29.1 -1.3 10 17.5 ESE 17 30 9 16 1016.9 - 0.0
01/01:30pm 34.4 28.3 -2.2 9 17.6 ESE 20 33 11 18 1017.3 - 0.0
01/01:00pm 33.4 27.3 -2.7 10 17.1 SE 20 35 11 19 1017.8 - 0.0
01/12:30pm 32.9 26.8 -2.7 10 16.8 SE 20 32 11 17 1018.3 - 0.0
01/12:00pm 33.0 26.4 -2.9 10 16.9 SE 22 35 12 19 1018.8 1017.2 0.0
01/11:30am 31.8 25.2 -3.5 10 16.3 SE 22 35 12 19 1019.5 - 0.0
01/11:00am 30.7 23.7 -3.2 11 15.6 ESE 24 41 13 22 1019.7 - 0.0
01/10:30am 30.6 23.9 -4.0 10 15.7 SE 22 32 12 17 1019.9 - 0.0
01/10:00am 29.1 21.7 -3.8 11 14.8 SE 26 37 14 20 1020.1 - 0.0
01/09:30am 28.3 21.3 -3.6 12 14.3 SE 24 41 13 22 1020.1 - 0.0
01/09:00am 27.3 20.7 -3.3 13 13.7 SE 22 35 12 19 1020.0 1018.4 0.0
01/08:30am 26.1 17.9 -4.2 13 13.2 SE 30 44 16 24 1019.7 - 0.0
01/08:00am 25.2 17.4 -3.6 14 12.6 SE 28 43 15 23 1019.5 - 0.0
01/07:30am 24.5 16.6 -4.5 14 12.4 SE 28 43 15 23 1019.1 - 0.0
01/07:00am 23.6 17.2 -5.4 14 12.1 SE 20 35 11 19 1018.5 - 0.0
01/06:30am 22.9 16.9 -6.4 13 11.9 SSE 17 22 9 12 1018.1 - 0.0
01/06:00am 23.0 17.0 -6.6 13 12.0 SSE 17 24 9 13 1017.6 1016.1 0.0
01/05:30am 21.9 16.6 -7.6 13 11.6 S 13 20 7 11 1017.1 - 0.0
01/05:00am 19.9 15.9 -6.0 17 10.3 S 7 9 4 5 1016.3 - 0.0
01/04:30am 20.5 16.5 -5.4 17 10.5 S 7 11 4 6 1015.8 - 0.0
01/04:00am 21.1 16.7 -5.9 16 10.9 S 9 11 5 6 1015.4 - 0.0
01/03:30am 21.5 17.1 -5.9 15 11.1 S 9 11 5 6 1015.1 - 0.0
01/03:00am 22.2 18.1 -6.6 14 11.6 SSE 7 11 4 6 1015.0 1013.4 0.0
01/02:30am 23.2 18.4 -6.5 13 12.1 SSE 11 15 6 8 1015.1 - 0.0
01/02:00am 23.8 19.3 -7.0 12 12.5 S 9 13 5 7 1015.2 - 0.0
01/01:30am 24.6 19.7 -6.9 12 12.9 S 11 15 6 8 1015.2 - 0.0
01/01:00am 25.8 20.7 -9.2 9 13.9 SSE 11 15 6 8 1015.4 - 0.0
01/12:30am 26.4 21.1 -12.1 7 14.6 S 11 17 6 9 1015.4 - 0.0
01/12:00am 24.8 20.2 -8.0 11 13.2 SSW 9 17 5 9 1015.2 1014.1 0.0
 
Date/Time
CST
Temp
°C
App
Temp
°C
Dew
Point
Rel
Hum
%
Delta-T
°C
Wind Press
QNH
hPa
Press
MSL
hPa
Rain
since 9 am
mm
Dir
 
Spd
km/h
Gust
km/h
Spd
kts
Gust
kts
30/11:30pm 21.2 18.0 -7.3 14 11.2 ESE 2 7 1 4 1015.1 - 0.0
30/11:00pm 21.8 19.1 -5.6 15 11.2 CALM 0 0 0 0 1014.9 - 0.0
30/10:30pm 23.3 19.4 -6.2 13 12.1 ESE 6 6 3 3 1014.9 - 0.0
30/10:00pm 24.0 20.4 -2.3 17 11.7 N 7 7 4 4 1014.8 - 0.0
30/09:30pm 24.2 20.5 -2.8 16 11.9 NE 7 9 4 5 1014.6 - 0.0
30/09:00pm 26.6 22.5 -7.0 10 14.0 NE 7 11 4 6 1014.4 1013.3 0.0
30/08:30pm 27.7 23.4 -4.6 12 14.2 NNE 9 11 5 6 1014.1 - 0.0
30/08:00pm 27.3 22.5 -10.5 7 14.9 NNE 9 11 5 6 1013.8 - 0.0
30/07:30pm 28.6 25.1 -1.1 14 14.0 NNE 7 9 4 5 1013.4 - 0.0
30/07:00pm 31.1 26.8 -4.4 10 16.1 NE 9 9 5 5 1013.2 - 0.0
30/06:30pm 33.1 28.3 -10.9 5 18.2 NE 9 13 5 7 1012.7 - 0.0
30/06:00pm 36.2 31.4 -9.9 5 19.9 NE 9 9 5 5 1012.4 1011.3 0.0
30/05:30pm 37.3 33.7 -7.0 6 20.2 NW 4 11 2 6 1012.2 - 0.0
30/05:00pm 37.5 32.9 -12.9 3 21.0 S 7 13 4 7 1012.1 - 0.0
30/04:30pm 38.1 32.5 -17.1 2 21.7 NNE 11 19 6 10 1012.0 - 0.0
30/04:00pm 37.4 31.9 -16.0 3 21.2 NNE 11 17 6 9 1012.0 - 0.0
30/03:30pm 38.9 31.6 -22.9 1 22.5 NW 19 24 10 13 1012.1 - 0.0
30/03:00pm 37.9 32.9 -13.6 3 21.3 NNE 9 17 5 9 1012.3 1011.2 0.0
30/02:30pm 37.5 32.1 -14.1 3 21.1 ESE 11 24 6 13 1012.5 - 0.0
30/02:00pm 37.7 31.5 -13.9 3 21.2 N 15 20 8 11 1012.8 - 0.0
30/01:30pm 37.4 32.2 -10.7 4 20.7 SW 11 22 6 12 1013.2 - 0.0
30/01:00pm 37.6 31.7 -15.9 3 21.3 NE 13 22 7 12 1013.6 - 0.0
30/12:30pm 36.8 31.6 -10.4 4 20.3 N 11 19 6 10 1014.3 - 0.0
30/12:00pm 37.0 30.9 -13.1 3 20.7 N 15 24 8 13 1014.8 1013.8 0.0
30/11:30am 36.6 31.5 -8.9 5 20.0 N 11 20 6 11 1015.4 - 0.0
30/11:00am 36.3 30.2 -12.3 4 20.2 N 15 28 8 15 1015.7 - 0.0
30/10:30am 35.6 29.3 -17.2 3 20.2 NNW 15 22 8 12 1016.2 - 0.0
30/10:00am 34.8 27.5 -18.2 3 19.8 N 20 32 11 17 1016.3 - 0.0
30/09:30am 33.3 26.1 -20.7 2 19.1 NNW 19 30 10 16 1016.4 - 0.0
30/09:00am 31.5 25.1 -19.2 3 18.0 NW 15 24 8 13 1016.3 1015.2 0.0
30/08:30am 30.1 23.5 -15.0 4 16.9 N 17 24 9 13 1016.2 - 0.0
30/08:00am 26.9 22.6 -11.6 7 14.8 N 6 13 3 7 1016.2 - 0.0
30/07:30am 22.6 18.8 -9.7 11 12.3 S 4 9 2 5 1015.7 - 0.0
30/07:00am 20.3 16.2 -8.2 14 10.9 NW 6 7 3 4 1015.0 - 0.0
30/06:30am 18.2 14.0 -10.3 13 10.2 WNW 6 9 3 5 1014.5 - 0.0
30/06:00am 19.1 14.4 -9.4 13 10.5 NNW 9 11 5 6 1014.1 1013.0 0.0
30/05:30am 19.8 14.4 -13.5 9 11.4 NW 11 15 6 8 1013.8 - 0.0
30/05:00am 17.9 13.0 -11.2 13 10.2 WNW 9 11 5 6 1013.5 - 0.0
30/04:30am 15.8 10.9 -12.5 13 9.4 W 9 13 5 7 1013.3 - 0.0
30/04:00am 14.3 10.8 -11.6 15 8.6 NNW 2 9 1 5 1012.9 - 0.0
30/03:30am 14.8 11.6 -7.3 21 8.1 N 2 6 1 3 1012.8 - 0.0
30/03:00am 15.6 12.6 -9.1 17 8.8 CALM 0 0 0 0 1012.8 1011.7 0.0
30/02:30am 16.2 12.2 -7.5 19 8.8 N 6 7 3 4 1012.7 - 0.0
30/02:00am 16.6 12.2 -9.9 15 9.4 N 7 9 4 5 1012.8 - 0.0
30/01:30am 16.7 13.9 -7.3 18 9.0 CALM 0 0 0 0 1013.2 - 0.0
30/01:00am 17.4 14.3 -10.8 13 9.9 CALM 0 0 0 0 1013.4 - 0.0
30/12:30am 18.1 15.0 -11.3 12 10.3 CALM 0 0 0 0 1013.6 - 0.0
30/12:00am 20.8 17.0 -5.1 17 10.6 N 6 7 3 4 1013.8 1012.7 0.0
 
Date/Time
CST
Temp
°C
App
Temp
°C
Dew
Point
Rel
Hum
%
Delta-T
°C
Wind Press
QNH
hPa
Press
MSL
hPa
Rain
since 9 am
mm
Dir
 
Spd
km/h
Gust
km/h
Spd
kts
Gust
kts
29/11:30pm 22.0 17.1 -7.2 13 11.6 N 11 15 6 8 1013.9 - 0.0
29/11:00pm 20.6 16.5 -6.7 15 10.8 N 7 9 4 5 1013.9 - 0.0
29/10:30pm 22.1 18.0 -6.9 14 11.6 N 7 11 4 6 1014.1 - 0.0
29/10:00pm 22.3 18.0 -8.7 12 12.0 ENE 7 9 4 5 1014.1 - 0.0
29/09:30pm 23.7 19.8 -4.5 15 12.0 NE 7 11 4 6 1014.3 - 0.0
29/09:00pm 24.2 19.6 -3.7 15 12.1 NE 11 11 6 6 1014.0 1012.8 0.0
29/08:30pm 25.3 21.2 -3.2 15 12.6 E 9 11 5 6 1013.7 - 0.0
29/08:00pm 25.9 21.9 -5.6 12 13.4 ENE 7 9 4 5 1013.4 - 0.0
29/07:30pm 27.3 23.6 0.0 17 13.0 E 9 11 5 6 1013.1 - 0.0
29/07:00pm 28.9 25.0 -4.7 11 14.9 ENE 7 9 4 5 1012.7 - 0.0
29/06:30pm 31.3 27.2 -6.7 8 16.6 E 7 11 4 6 1012.5 - 0.0
29/06:00pm 33.8 29.0 -10.0 5 18.5 E 9 13 5 7 1012.1 1011.0 0.0
29/05:30pm 34.3 30.4 -7.0 7 18.4 ENE 6 15 3 8 1011.8 - 0.0
29/05:00pm 34.9 29.7 -10.4 5 19.2 ENE 11 19 6 10 1011.6 - 0.0
29/04:30pm 35.5 30.3 -10.8 5 19.6 NNE 11 24 6 13 1011.6 - 0.0
29/04:00pm 36.0 30.7 -11.8 4 20.0 SSW 11 15 6 8 1011.3 - 0.0
29/03:30pm 35.7 30.4 -11.5 4 19.8 WSW 11 15 6 8 1011.3 - 0.0
29/03:00pm 35.9 30.4 -9.6 5 19.7 SE 13 32 7 17 1011.7 1010.6 0.0
29/02:30pm 35.2 29.1 -12.5 4 19.6 NE 15 24 8 13 1011.9 - 0.0
29/02:00pm 35.2 28.3 -13.6 4 19.7 E 19 28 10 15 1012.2 - 0.0
29/01:30pm 35.1 30.8 -8.7 5 19.1 NNE 7 13 4 7 1012.8 - 0.0
29/01:00pm 34.8 29.6 -10.2 5 19.1 ENE 11 24 6 13 1013.2 - 0.0
29/12:30pm 34.7 29.9 -10.7 5 19.1 NNE 9 20 5 11 1013.6 - 0.0
29/12:00pm 34.2 29.9 -9.0 6 18.6 WNW 7 20 4 11 1014.2 1013.1 0.0

Other Formats:

Comma delimited format used in spreadsheet applications
http://www.bom.gov.au/fwo/IDD60801/IDD60801.94327.axf

JavaScript Object Notation format (JSON) in row-major order
http://www.bom.gov.au/fwo/IDD60801/IDD60801.94327.json